createdAt,value
2023-06-18T00:00:36.096Z,99.64
2023-06-18T00:06:01.660Z,99.97
2023-06-18T00:11:04.585Z,100.00
2023-06-18T00:16:07.444Z,100.00
2023-06-18T00:21:12.172Z,100.00
2023-06-18T00:26:15.147Z,100.00
2023-06-18T00:31:19.326Z,100.00
2023-06-18T00:36:22.187Z,100.00
2023-06-18T00:41:28.886Z,100.00
2023-06-18T00:46:32.132Z,100.00
2023-06-18T00:51:36.239Z,100.00
2023-06-18T00:56:39.527Z,100.00
2023-06-18T01:01:42.480Z,100.00
2023-06-18T01:06:46.875Z,100.00
2023-06-18T01:11:54.902Z,100.00
2023-06-18T01:17:00.223Z,100.00
2023-06-18T01:22:13.035Z,100.00
2023-06-18T01:27:17.741Z,100.00
2023-06-18T01:32:21.428Z,100.00
2023-06-18T01:37:49.708Z,100.00
2023-06-18T01:43:12.810Z,100.00
2023-06-18T01:48:19.131Z,100.00
2023-06-18T01:53:25.566Z,100.00
2023-06-18T01:58:32.925Z,100.00
2023-06-18T02:03:36.089Z,100.00
2023-06-18T02:08:39.045Z,100.00
2023-06-18T02:13:41.970Z,100.00
2023-06-18T02:18:44.763Z,100.00
2023-06-18T02:23:47.596Z,100.00
2023-06-18T02:28:50.518Z,100.00
2023-06-18T02:33:53.329Z,100.00
2023-06-18T02:38:56.685Z,100.00
2023-06-18T02:43:59.656Z,100.00
2023-06-18T02:49:03.099Z,100.00
2023-06-18T02:54:05.882Z,100.00
2023-06-18T02:59:08.872Z,100.00
2023-06-18T03:04:12.940Z,100.00
2023-06-18T03:09:16.081Z,100.00
2023-06-18T03:14:21.611Z,100.00
2023-06-18T03:19:24.645Z,100.00
2023-06-18T03:24:28.312Z,100.00
2023-06-18T03:29:31.517Z,100.00
2023-06-18T03:34:34.969Z,100.00
2023-06-18T03:39:37.737Z,100.00
2023-06-18T03:44:40.705Z,100.00
2023-06-18T03:49:43.607Z,100.00
2023-06-18T03:54:47.099Z,100.00
2023-06-18T03:59:53.030Z,99.98
2023-06-18T04:04:56.387Z,99.18
2023-06-18T04:09:59.161Z,97.99
2023-06-18T04:15:02.347Z,96.94
2023-06-18T04:20:06.378Z,95.19
2023-06-18T04:25:10.138Z,95.06
2023-06-18T04:30:13.037Z,93.90
2023-06-18T04:35:15.971Z,92.12
2023-06-18T04:40:19.693Z,90.56
2023-06-18T04:45:22.671Z,89.67
2023-06-18T04:50:25.832Z,89.13
2023-06-18T04:55:29.683Z,88.36
2023-06-18T05:00:34.509Z,87.16
2023-06-18T05:05:37.294Z,86.41
2023-06-18T05:10:40.133Z,85.15
2023-06-18T05:15:43.093Z,83.98
2023-06-18T05:20:46.398Z,82.93
2023-06-18T05:25:49.261Z,81.74
2023-06-18T05:30:52.222Z,80.31
2023-06-18T05:35:55.197Z,77.76
2023-06-18T05:40:58.022Z,75.19
2023-06-18T05:46:01.068Z,72.18
2023-06-18T05:51:04.251Z,70.14
2023-06-18T05:56:07.122Z,68.83
2023-06-18T06:01:10.532Z,67.22
2023-06-18T06:06:13.550Z,66.57
2023-06-18T06:11:16.372Z,63.84
2023-06-18T06:16:19.238Z,60.85
2023-06-18T06:21:22.081Z,57.95
2023-06-18T06:26:25.060Z,55.66
2023-06-18T06:31:27.894Z,54.91
2023-06-18T06:36:30.772Z,54.01
2023-06-18T06:41:33.634Z,53.81
2023-06-18T06:46:36.427Z,51.94
2023-06-18T06:51:39.610Z,50.02
2023-06-18T06:56:42.410Z,47.23
2023-06-18T07:01:46.164Z,45.52
2023-06-18T07:06:49.374Z,45.16
2023-06-18T07:11:52.356Z,43.70
2023-06-18T07:16:55.293Z,43.18
2023-06-18T07:21:58.202Z,43.66
2023-06-18T07:27:01.172Z,43.17
2023-06-18T07:32:04.177Z,41.15
2023-06-18T07:37:07.184Z,39.02
2023-06-18T07:42:10.067Z,38.42
2023-06-18T07:47:13.062Z,38.69
2023-06-18T07:52:15.850Z,38.84
2023-06-18T07:57:18.913Z,39.26
2023-06-18T08:02:21.814Z,40.51
2023-06-18T08:07:24.636Z,40.75
2023-06-18T08:12:27.422Z,39.96
2023-06-18T08:17:30.262Z,38.00
2023-06-18T08:22:33.538Z,36.38
2023-06-18T08:27:36.600Z,36.05
2023-06-18T08:32:39.982Z,36.00
2023-06-18T08:37:43.776Z,35.17
2023-06-18T08:42:58.532Z,34.47
2023-06-18T08:48:19.991Z,33.92
2023-06-18T08:53:39.532Z,33.17
2023-06-18T08:58:51.824Z,33.17
2023-06-18T09:03:56.420Z,33.82
2023-06-18T09:09:02.128Z,35.40
2023-06-18T09:14:05.190Z,36.10
2023-06-18T09:19:09.426Z,36.05
2023-06-18T09:24:21.860Z,35.24
2023-06-18T09:29:29.810Z,35.10
2023-06-18T09:34:32.916Z,34.48
2023-06-18T09:39:41.636Z,32.61
2023-06-18T09:44:46.534Z,30.40
2023-06-18T09:49:49.739Z,30.27
2023-06-18T09:54:52.752Z,30.85
2023-06-18T10:00:12.716Z,31.70
2023-06-18T10:05:16.412Z,32.82
2023-06-18T10:10:19.848Z,33.82
2023-06-18T10:15:27.230Z,35.16
2023-06-18T10:20:30.539Z,36.28
2023-06-18T10:25:34.647Z,37.38
2023-06-18T10:30:38.032Z,38.53
2023-06-18T10:35:41.692Z,38.09
2023-06-18T10:40:44.721Z,37.97
2023-06-18T10:46:17.936Z,38.00
2023-06-18T10:51:20.924Z,38.50
2023-06-18T10:56:23.673Z,38.41
2023-06-18T11:01:27.642Z,38.96
2023-06-18T11:06:31.620Z,40.24
2023-06-18T11:11:34.885Z,41.39
2023-06-18T11:16:38.453Z,41.92
2023-06-18T11:21:46.925Z,42.85
2023-06-18T11:26:50.887Z,43.38
2023-06-18T11:31:53.670Z,43.65
2023-06-18T11:36:56.517Z,44.54
2023-06-18T11:42:21.022Z,45.38
2023-06-18T11:47:24.014Z,46.21
2023-06-18T11:52:28.617Z,46.90
2023-06-18T11:57:32.066Z,47.46
2023-06-18T12:02:35.083Z,47.28
2023-06-18T12:07:45.958Z,47.15
2023-06-18T12:12:57.186Z,46.75
2023-06-18T12:18:20.292Z,46.66
2023-06-18T12:23:23.950Z,46.21
2023-06-18T12:28:26.873Z,46.64
2023-06-18T12:33:29.776Z,51.27
2023-06-18T12:38:47.005Z,54.13
2023-06-18T12:43:50.425Z,56.48
2023-06-18T12:48:53.923Z,58.20
2023-06-18T12:53:56.849Z,59.84
2023-06-18T12:59:02.913Z,61.41
2023-06-18T13:04:05.935Z,63.92
2023-06-18T13:09:09.415Z,66.24
2023-06-18T13:14:25.954Z,67.64
2023-06-18T13:19:40.487Z,68.87
2023-06-18T13:24:46.553Z,70.16
2023-06-18T13:29:49.483Z,71.16
2023-06-18T13:34:52.901Z,71.57
2023-06-18T13:39:55.980Z,72.27
2023-06-18T13:45:00.639Z,72.67
2023-06-18T13:50:04.838Z,73.06
2023-06-18T13:55:08.723Z,73.36
2023-06-18T14:00:12.754Z,73.12
2023-06-18T14:05:15.999Z,73.42
2023-06-18T14:10:19.162Z,72.99
2023-06-18T14:15:22.156Z,72.68
2023-06-18T14:20:25.564Z,72.51
2023-06-18T14:25:29.044Z,72.71
2023-06-18T14:30:32.605Z,72.77
2023-06-18T14:35:35.388Z,72.25
2023-06-18T14:40:38.392Z,71.50
2023-06-18T14:45:41.287Z,70.13
2023-06-18T14:50:45.541Z,67.75
2023-06-18T14:55:48.436Z,65.83
2023-06-18T15:00:51.391Z,65.40
2023-06-18T15:05:54.556Z,64.22
2023-06-18T15:10:57.385Z,63.24
2023-06-18T15:16:00.260Z,62.55
2023-06-18T15:21:03.063Z,61.78
2023-06-18T15:26:06.227Z,60.34
2023-06-18T15:31:12.419Z,60.14
2023-06-18T15:36:15.894Z,59.50
2023-06-18T15:41:18.779Z,58.69
2023-06-18T15:46:21.679Z,57.70
2023-06-18T15:51:24.689Z,57.45
2023-06-18T15:56:27.515Z,58.26
2023-06-18T16:01:31.920Z,59.13
2023-06-18T16:06:34.681Z,60.13
2023-06-18T16:11:37.597Z,60.80
2023-06-18T16:16:40.542Z,61.30
2023-06-18T16:21:43.579Z,61.57
2023-06-18T16:26:46.475Z,61.61
2023-06-18T16:31:49.382Z,61.25
2023-06-18T16:36:53.086Z,60.71
2023-06-18T16:41:56.119Z,60.64
2023-06-18T16:46:58.949Z,60.33
2023-06-18T16:52:01.961Z,60.57
2023-06-18T16:57:05.419Z,60.77
2023-06-18T17:02:08.236Z,61.00
2023-06-18T17:07:11.226Z,61.17
2023-06-18T17:12:14.541Z,61.31
2023-06-18T17:17:17.456Z,61.80
2023-06-18T17:22:20.453Z,62.90
2023-06-18T17:27:24.081Z,63.36
2023-06-18T17:32:27.001Z,63.97
2023-06-18T17:37:29.994Z,65.00
2023-06-18T17:42:32.754Z,66.28
2023-06-18T17:47:36.051Z,67.18
2023-06-18T17:52:38.908Z,69.05
2023-06-18T17:57:42.239Z,70.25
2023-06-18T18:02:45.111Z,71.48
2023-06-18T18:07:48.779Z,72.62
2023-06-18T18:12:51.559Z,73.73
2023-06-18T18:17:54.379Z,75.19
2023-06-18T18:22:57.181Z,76.29
2023-06-18T18:27:59.969Z,77.74
2023-06-18T18:33:02.865Z,79.08
2023-06-18T18:38:05.860Z,79.96
2023-06-18T18:43:08.768Z,81.09
2023-06-18T18:48:12.421Z,81.88
2023-06-18T18:53:15.330Z,82.95
2023-06-18T18:58:18.551Z,83.40
2023-06-18T19:03:21.661Z,83.35
2023-06-18T19:08:25.157Z,83.39
2023-06-18T19:13:28.032Z,82.97
2023-06-18T19:18:33.281Z,83.32
2023-06-18T19:23:36.662Z,83.91
2023-06-18T19:28:39.509Z,84.23
2023-06-18T19:33:42.739Z,84.62
2023-06-18T19:38:46.012Z,85.55
2023-06-18T19:43:48.967Z,86.24
2023-06-18T19:48:52.693Z,86.48
2023-06-18T19:53:55.674Z,86.89
2023-06-18T19:58:58.972Z,87.17
2023-06-18T20:04:02.138Z,87.42
2023-06-18T20:09:05.345Z,88.01
2023-06-18T20:14:08.244Z,88.73
2023-06-18T20:19:11.221Z,89.00
2023-06-18T20:24:14.163Z,89.82
2023-06-18T20:29:17.287Z,90.55
2023-06-18T20:34:20.140Z,90.94
2023-06-18T20:39:23.605Z,91.31
2023-06-18T20:44:26.617Z,91.82
2023-06-18T20:49:30.498Z,92.84
2023-06-18T20:54:34.372Z,93.30
2023-06-18T20:59:37.961Z,93.28
2023-06-18T21:04:40.755Z,94.26
2023-06-18T21:09:43.881Z,94.73
2023-06-18T21:14:46.716Z,95.24
2023-06-18T21:19:49.472Z,95.69
2023-06-18T21:24:52.285Z,96.57
2023-06-18T21:29:55.107Z,97.06
2023-06-18T21:34:57.908Z,97.21
2023-06-18T21:40:01.573Z,98.09
2023-06-18T21:45:05.102Z,98.37
2023-06-18T21:50:09.747Z,98.25
2023-06-18T21:55:14.004Z,98.91
2023-06-18T22:00:19.719Z,99.24
2023-06-18T22:05:22.962Z,99.92
2023-06-18T22:10:26.109Z,100.00
2023-06-18T22:15:29.201Z,100.00
2023-06-18T22:20:32.190Z,100.00
2023-06-18T22:25:35.106Z,100.00
2023-06-18T22:30:38.217Z,100.00
2023-06-18T22:35:41.064Z,100.00
2023-06-18T22:40:43.881Z,100.00
2023-06-18T22:45:46.780Z,100.00
2023-06-18T22:50:49.914Z,100.00
2023-06-18T22:55:52.713Z,100.00
2023-06-18T23:00:56.431Z,100.00
2023-06-18T23:05:59.360Z,100.00
2023-06-18T23:11:03.190Z,100.00
2023-06-18T23:16:06.112Z,100.00
2023-06-18T23:21:09.766Z,100.00
2023-06-18T23:26:12.633Z,100.00
2023-06-18T23:31:17.221Z,100.00
2023-06-18T23:36:20.265Z,100.00
2023-06-18T23:41:23.169Z,100.00
2023-06-18T23:46:25.989Z,100.00
2023-06-18T23:51:28.929Z,100.00
2023-06-18T23:56:31.676Z,100.00
